createdAt,value
2022-08-16T00:01:34.031Z,6.78
2022-08-16T00:04:05.340Z,4.57
2022-08-16T00:06:36.604Z,4.40
2022-08-16T00:09:10.835Z,3.53
2022-08-16T00:11:40.608Z,5.88
2022-08-16T00:14:11.519Z,4.05
2022-08-16T00:17:00.692Z,3.28
2022-08-16T00:19:41.461Z,4.00
2022-08-16T00:22:15.173Z,4.00
2022-08-16T00:24:44.936Z,4.00
2022-08-16T00:27:15.724Z,3.70
2022-08-16T00:29:45.856Z,3.90
2022-08-16T00:32:18.276Z,4.32
2022-08-16T00:34:53.683Z,4.70
2022-08-16T00:37:57.897Z,4.75
2022-08-16T00:40:33.669Z,3.60
2022-08-16T00:43:06.108Z,3.72
2022-08-16T00:46:00.360Z,7.75
2022-08-16T00:48:40.384Z,5.63
2022-08-16T00:53:47.128Z,4.43
2022-08-16T00:56:56.148Z,5.03
2022-08-16T00:59:10.594Z,3.45
2022-08-16T01:01:39.106Z,3.95
2022-08-16T01:04:29.605Z,5.00
2022-08-16T01:07:01.697Z,4.80
2022-08-16T01:09:34.159Z,5.63
2022-08-16T01:12:04.345Z,4.50
2022-08-16T01:14:43.581Z,4.45
2022-08-16T01:17:13.126Z,6.25
2022-08-16T01:19:45.268Z,4.22
2022-08-16T01:22:47.762Z,4.82
2022-08-16T01:25:14.367Z,7.43
2022-08-16T01:27:46.809Z,4.20
2022-08-16T01:30:20.547Z,4.97
2022-08-16T01:33:02.846Z,4.88
2022-08-16T01:35:44.898Z,8.13
2022-08-16T01:38:28.461Z,6.75
2022-08-16T01:41:03.627Z,4.65
2022-08-16T01:43:32.802Z,5.80
2022-08-16T01:46:29.688Z,5.70
2022-08-16T01:48:56.840Z,4.88
2022-08-16T01:51:26.601Z,4.97
2022-08-16T01:53:55.758Z,5.65
2022-08-16T01:56:26.874Z,6.03
2022-08-16T01:58:56.302Z,5.45
2022-08-16T02:01:25.915Z,6.72
2022-08-16T02:03:58.633Z,6.65
2022-08-16T02:06:46.003Z,5.60
2022-08-16T02:09:17.862Z,4.68
2022-08-16T02:11:53.195Z,5.80
2022-08-16T02:14:26.296Z,4.15
2022-08-16T02:16:56.353Z,3.90
2022-08-16T02:19:59.454Z,4.18
2022-08-16T02:22:33.861Z,7.70
2022-08-16T02:25:05.982Z,8.63
2022-08-16T02:27:37.016Z,5.90
2022-08-16T02:30:08.705Z,5.82
2022-08-16T02:32:50.505Z,4.82
2022-08-16T02:35:23.101Z,5.85
2022-08-16T02:37:53.465Z,5.43
2022-08-16T02:40:25.858Z,5.27
2022-08-16T02:42:56.346Z,5.80
2022-08-16T02:45:27.707Z,5.40
2022-08-16T02:48:01.677Z,5.68
2022-08-16T02:51:05.858Z,4.88
2022-08-16T02:53:34.369Z,4.47
2022-08-16T02:56:02.561Z,5.28
2022-08-16T02:58:33.639Z,7.47
2022-08-16T03:01:02.311Z,4.55
2022-08-16T03:04:39.566Z,5.90
2022-08-16T03:06:41.376Z,6.32
2022-08-16T03:09:13.507Z,3.85
2022-08-16T03:11:42.556Z,6.05
2022-08-16T03:14:13.176Z,5.65
2022-08-16T03:16:42.383Z,5.93
2022-08-16T03:19:47.491Z,5.00
2022-08-16T03:22:19.273Z,6.28
2022-08-16T03:24:58.041Z,5.78
2022-08-16T03:27:30.931Z,4.18
2022-08-16T03:30:02.566Z,4.82
2022-08-16T03:32:47.050Z,5.28
2022-08-16T03:35:17.795Z,5.22
2022-08-16T03:38:01.697Z,5.47
2022-08-16T03:40:34.108Z,4.40
2022-08-16T03:43:19.964Z,5.00
2022-08-16T03:45:52.507Z,5.70
2022-08-16T03:48:37.078Z,4.35
2022-08-16T03:51:13.181Z,5.20
2022-08-16T03:53:42.672Z,4.90
2022-08-16T03:56:19.555Z,4.60
2022-08-16T03:58:50.695Z,6.68
2022-08-16T04:01:21.066Z,4.68
2022-08-16T04:03:50.748Z,6.68
2022-08-16T04:06:19.157Z,9.82
2022-08-16T04:08:48.062Z,5.90
2022-08-16T04:11:17.166Z,5.28
2022-08-16T04:13:58.864Z,6.10
2022-08-16T04:16:31.272Z,5.07
2022-08-16T04:19:02.688Z,5.63
2022-08-16T04:21:32.984Z,8.40
2022-08-16T04:24:01.598Z,5.25
2022-08-16T04:26:32.456Z,7.57
2022-08-16T04:29:15.019Z,7.25
2022-08-16T04:31:56.601Z,5.13
2022-08-16T04:34:28.117Z,5.00
2022-08-16T04:36:58.056Z,4.97
2022-08-16T04:39:44.824Z,5.13
2022-08-16T04:42:16.171Z,5.68
2022-08-16T04:44:53.913Z,14.55
2022-08-16T04:47:33.483Z,5.28
2022-08-16T04:50:08.954Z,5.32
2022-08-16T04:52:38.090Z,5.03
2022-08-16T04:55:09.564Z,5.40
2022-08-16T04:57:41.634Z,5.20
2022-08-16T05:00:31.111Z,7.53
2022-08-16T05:03:07.354Z,7.05
2022-08-16T05:05:45.245Z,6.93
2022-08-16T05:08:29.785Z,5.78
2022-08-16T05:11:01.315Z,6.32
2022-08-16T05:13:39.914Z,6.03
2022-08-16T05:16:20.099Z,5.60
2022-08-16T05:18:52.767Z,9.35
2022-08-16T05:21:22.129Z,5.10
2022-08-16T05:23:55.722Z,6.80
2022-08-16T05:26:28.284Z,4.70
2022-08-16T05:28:57.535Z,5.28
2022-08-16T05:31:29.750Z,4.65
2022-08-16T05:34:03.050Z,5.40
2022-08-16T05:36:36.098Z,5.25
2022-08-16T05:39:06.773Z,7.70
2022-08-16T05:41:44.793Z,4.68
2022-08-16T05:44:23.804Z,5.38
2022-08-16T05:46:55.900Z,6.40
2022-08-16T05:49:38.229Z,5.18
2022-08-16T05:52:11.363Z,5.85
2022-08-16T05:54:47.165Z,5.25
2022-08-16T05:57:17.359Z,5.13
2022-08-16T05:59:47.397Z,6.18
2022-08-16T06:04:48.681Z,5.15
2022-08-16T06:07:25.214Z,8.13
2022-08-16T06:09:56.296Z,6.95
2022-08-16T06:12:27.095Z,6.78
2022-08-16T06:14:58.984Z,7.22
2022-08-16T06:17:43.019Z,7.32
2022-08-16T06:20:18.449Z,7.78
2022-08-16T06:23:02.846Z,7.65
2022-08-16T06:25:35.994Z,10.25
2022-08-16T06:28:08.373Z,7.65
2022-08-16T06:30:43.433Z,8.60
2022-08-16T06:33:12.766Z,6.75
2022-08-16T06:35:42.367Z,6.22
2022-08-16T06:38:32.753Z,6.18
2022-08-16T06:40:59.289Z,6.85
2022-08-16T06:43:28.401Z,7.95
2022-08-16T06:45:57.130Z,5.93
2022-08-16T06:48:33.000Z,6.55
2022-08-16T06:51:03.841Z,7.85
2022-08-16T06:53:36.441Z,7.82
2022-08-16T06:56:14.758Z,9.70
2022-08-16T06:58:47.848Z,6.70
2022-08-16T07:01:22.929Z,7.05
2022-08-16T07:04:10.449Z,7.15
2022-08-16T07:06:43.263Z,6.65
2022-08-16T07:09:12.131Z,11.38
2022-08-16T07:11:47.394Z,6.47
2022-08-16T07:14:23.586Z,7.97
2022-08-16T07:16:58.350Z,7.07
2022-08-16T07:20:02.187Z,7.28
2022-08-16T07:22:37.424Z,7.88
2022-08-16T07:25:09.407Z,7.13
2022-08-16T07:27:38.685Z,6.20
2022-08-16T07:30:46.034Z,7.95
2022-08-16T07:32:58.655Z,6.82
2022-08-16T07:35:27.232Z,7.05
2022-08-16T07:37:56.692Z,6.00
2022-08-16T07:40:56.233Z,5.80
2022-08-16T07:43:13.958Z,7.03
2022-08-16T07:45:43.053Z,6.13
2022-08-16T07:48:12.529Z,11.05
2022-08-16T07:50:57.449Z,6.10
2022-08-16T07:53:30.127Z,6.63
2022-08-16T07:56:00.148Z,6.53
2022-08-16T07:58:34.412Z,7.28
2022-08-16T08:01:10.948Z,8.02
2022-08-16T08:03:47.583Z,7.28
2022-08-16T08:06:16.913Z,6.82
2022-08-16T08:08:50.584Z,7.07
2022-08-16T08:11:21.933Z,7.53
2022-08-16T08:13:53.786Z,6.22
2022-08-16T08:16:30.250Z,7.53
2022-08-16T08:19:01.184Z,6.32
2022-08-16T08:21:58.791Z,6.00
2022-08-16T08:24:31.839Z,7.63
2022-08-16T08:27:03.306Z,8.45
2022-08-16T08:29:36.810Z,5.90
2022-08-16T08:32:56.980Z,5.47
2022-08-16T08:35:03.199Z,5.85
2022-08-16T08:37:55.320Z,5.88
2022-08-16T08:40:24.477Z,5.47
2022-08-16T08:42:57.761Z,8.38
2022-08-16T08:45:48.118Z,7.25
2022-08-16T08:48:34.219Z,6.47
2022-08-16T08:51:05.210Z,7.25
2022-08-16T08:53:34.318Z,5.57
2022-08-16T08:56:22.415Z,5.95
2022-08-16T08:58:54.078Z,8.77
2022-08-16T09:01:31.824Z,8.90
2022-08-16T09:04:06.034Z,3.75
2022-08-16T09:06:34.996Z,4.65
2022-08-16T09:09:03.617Z,3.95
2022-08-16T09:11:40.539Z,6.00
2022-08-16T09:14:23.947Z,3.15
2022-08-16T09:17:03.607Z,3.15
2022-08-16T09:19:33.752Z,3.95
2022-08-16T09:22:03.280Z,4.65
2022-08-16T09:24:46.683Z,3.45
2022-08-16T09:27:23.424Z,3.88
2022-08-16T09:32:30.574Z,3.60
2022-08-16T09:35:00.050Z,2.72
2022-08-16T09:37:29.737Z,4.07
2022-08-16T09:39:59.579Z,4.13
2022-08-16T09:42:30.883Z,4.43
2022-08-16T09:45:19.025Z,3.58
2022-08-16T09:47:56.093Z,2.88
2022-08-16T09:50:33.238Z,3.50
2022-08-16T09:53:14.762Z,3.47
2022-08-16T09:55:46.442Z,2.70
2022-08-16T09:58:40.596Z,4.38
2022-08-16T10:01:11.201Z,2.47
2022-08-16T10:04:02.138Z,3.63
2022-08-16T10:06:33.212Z,2.50
2022-08-16T10:09:05.012Z,2.97
2022-08-16T10:11:51.966Z,1.95
2022-08-16T10:14:24.636Z,2.28
2022-08-16T10:16:59.657Z,3.05
2022-08-16T10:19:31.881Z,4.10
2022-08-16T10:22:04.821Z,2.55
2022-08-16T10:24:33.891Z,2.25
2022-08-16T10:27:21.212Z,1.98
2022-08-16T10:29:59.374Z,2.35
2022-08-16T10:32:28.032Z,2.05
2022-08-16T10:34:59.036Z,4.13
2022-08-16T10:37:32.456Z,2.72
2022-08-16T10:40:29.431Z,2.38
2022-08-16T10:42:55.393Z,2.47
2022-08-16T10:45:25.415Z,1.75
2022-08-16T10:48:00.683Z,1.92
2022-08-16T10:50:32.416Z,1.95
2022-08-16T10:53:07.577Z,2.88
2022-08-16T10:55:40.952Z,7.70
2022-08-16T10:58:16.862Z,1.38
2022-08-16T11:00:47.843Z,1.73
2022-08-16T11:06:07.613Z,1.85
2022-08-16T11:08:44.946Z,1.75
2022-08-16T11:11:19.533Z,2.17
2022-08-16T11:13:58.854Z,1.27
2022-08-16T11:19:18.360Z,3.63
2022-08-16T11:24:43.551Z,2.47
2022-08-16T11:27:32.698Z,1.70
2022-08-16T11:30:09.258Z,1.85
2022-08-16T11:32:44.290Z,3.70
2022-08-16T11:35:17.130Z,2.60
2022-08-16T11:40:40.834Z,1.35
2022-08-16T11:43:16.667Z,1.98
2022-08-16T11:45:53.471Z,1.77
2022-08-16T11:48:26.942Z,2.05
2022-08-16T11:50:55.823Z,1.50
2022-08-16T11:53:25.078Z,1.60
2022-08-16T11:55:55.169Z,3.42
2022-08-16T11:58:25.376Z,1.20
2022-08-16T12:00:55.860Z,2.45
2022-08-16T12:03:31.089Z,1.20
2022-08-16T12:06:10.932Z,1.63
2022-08-16T12:08:41.290Z,1.60
2022-08-16T12:11:12.233Z,3.25
2022-08-16T12:13:40.812Z,1.75
2022-08-16T12:16:23.268Z,2.42
2022-08-16T12:19:03.440Z,1.97
2022-08-16T12:21:35.876Z,1.55
2022-08-16T12:24:23.797Z,1.35
2022-08-16T12:26:52.311Z,2.00
2022-08-16T12:29:20.836Z,1.27
2022-08-16T12:31:59.122Z,1.42
2022-08-16T12:34:50.738Z,2.05
2022-08-16T12:37:24.317Z,1.40
2022-08-16T12:39:55.121Z,3.63
2022-08-16T12:42:24.512Z,2.28
2022-08-16T12:45:03.386Z,2.60
2022-08-16T12:47:49.083Z,1.52
2022-08-16T12:50:18.613Z,1.52
2022-08-16T12:52:52.743Z,1.17
2022-08-16T12:55:23.824Z,1.45
2022-08-16T12:58:03.240Z,1.15
2022-08-16T13:00:43.302Z,2.17
2022-08-16T13:03:12.807Z,2.20
2022-08-16T13:05:47.771Z,2.45
2022-08-16T13:08:30.740Z,1.58
2022-08-16T13:10:59.759Z,1.27
2022-08-16T13:13:29.542Z,1.88
2022-08-16T13:16:03.715Z,1.92
2022-08-16T13:18:35.629Z,1.30
2022-08-16T13:21:07.980Z,1.42
2022-08-16T13:23:43.764Z,2.50
2022-08-16T13:26:12.763Z,1.15
2022-08-16T13:28:47.659Z,2.53
2022-08-16T13:31:16.932Z,1.50
2022-08-16T13:33:46.137Z,1.38
2022-08-16T13:36:32.159Z,1.33
2022-08-16T13:39:04.807Z,2.47
2022-08-16T13:41:33.577Z,3.05
2022-08-16T13:44:04.181Z,1.73
2022-08-16T13:46:37.726Z,1.20
2022-08-16T13:49:06.937Z,1.60
2022-08-16T13:51:36.391Z,1.92
2022-08-16T13:56:39.927Z,1.08
2022-08-16T13:59:16.541Z,1.20
2022-08-16T14:01:55.966Z,1.65
2022-08-16T14:04:28.935Z,3.40
2022-08-16T14:06:59.722Z,2.13
2022-08-16T14:09:29.176Z,1.88
2022-08-16T14:11:58.410Z,1.23
2022-08-16T14:14:30.214Z,1.48
2022-08-16T14:17:01.069Z,4.03
2022-08-16T14:19:31.040Z,2.97
2022-08-16T14:22:14.444Z,2.85
2022-08-16T14:24:47.597Z,1.63
2022-08-16T14:27:17.083Z,1.38
2022-08-16T14:29:49.300Z,1.85
2022-08-16T14:32:27.266Z,1.50
2022-08-16T14:35:02.901Z,1.92
2022-08-16T14:37:32.576Z,2.17
2022-08-16T14:40:00.983Z,1.38
2022-08-16T14:42:31.119Z,1.73
2022-08-16T14:45:00.499Z,1.75
2022-08-16T14:47:34.095Z,2.17
2022-08-16T14:50:03.239Z,2.53
2022-08-16T14:53:04.358Z,1.77
2022-08-16T14:55:24.961Z,1.30
2022-08-16T14:57:54.240Z,1.20
2022-08-16T15:00:32.865Z,3.17
2022-08-16T15:03:04.730Z,1.45
2022-08-16T15:05:34.151Z,1.42
2022-08-16T15:08:05.307Z,1.33
2022-08-16T15:10:33.461Z,1.13
2022-08-16T15:13:02.079Z,1.58
2022-08-16T15:15:31.759Z,1.90
2022-08-16T15:18:01.716Z,1.70
2022-08-16T15:20:33.313Z,4.15
2022-08-16T15:23:05.335Z,1.50
2022-08-16T15:25:36.163Z,2.22
2022-08-16T15:28:31.053Z,2.25
2022-08-16T15:31:02.932Z,1.60
2022-08-16T15:33:32.452Z,1.13
2022-08-16T15:36:01.304Z,2.35
2022-08-16T15:38:43.556Z,2.25
2022-08-16T15:41:51.263Z,2.75
2022-08-16T15:44:24.602Z,1.65
2022-08-16T15:46:56.729Z,1.65
2022-08-16T15:49:34.720Z,1.95
2022-08-16T15:52:12.382Z,3.78
2022-08-16T15:54:53.461Z,4.22
2022-08-16T15:57:25.114Z,1.40
2022-08-16T15:59:55.627Z,1.60
2022-08-16T16:05:02.398Z,1.60
2022-08-16T16:07:33.758Z,2.80
2022-08-16T16:10:07.719Z,1.90
2022-08-16T16:12:54.218Z,1.70
2022-08-16T16:15:29.432Z,1.80
2022-08-16T16:17:58.540Z,2.25
2022-08-16T16:20:28.781Z,3.65
2022-08-16T16:23:00.925Z,2.40
2022-08-16T16:25:31.614Z,2.05
2022-08-16T16:28:01.970Z,2.38
2022-08-16T16:30:33.129Z,3.05
2022-08-16T16:33:15.627Z,2.17
2022-08-16T16:35:55.241Z,3.83
2022-08-16T16:38:30.885Z,2.75
2022-08-16T16:41:02.807Z,1.67
2022-08-16T16:43:33.346Z,1.40
2022-08-16T16:46:05.739Z,1.58
2022-08-16T16:48:51.894Z,1.58
2022-08-16T16:51:22.127Z,1.40
2022-08-16T16:53:56.171Z,1.90
2022-08-16T16:56:31.387Z,1.65
2022-08-16T16:59:06.110Z,4.30
2022-08-16T17:02:00.350Z,1.40
2022-08-16T17:04:32.775Z,3.30
2022-08-16T17:07:02.336Z,1.75
2022-08-16T17:09:32.247Z,3.42
2022-08-16T17:12:05.019Z,2.88
2022-08-16T17:14:34.674Z,2.15
2022-08-16T17:17:06.875Z,1.83
2022-08-16T17:19:41.313Z,2.00
2022-08-16T17:22:14.336Z,2.63
2022-08-16T17:24:44.974Z,1.85
2022-08-16T17:27:17.891Z,5.78
2022-08-16T17:29:47.583Z,3.97
2022-08-16T17:32:46.634Z,2.05
2022-08-16T17:35:17.837Z,1.85
2022-08-16T17:37:51.720Z,2.85
2022-08-16T17:40:25.665Z,2.08
2022-08-16T17:43:11.268Z,3.33
2022-08-16T17:45:40.031Z,2.63
2022-08-16T17:48:08.617Z,2.20
2022-08-16T17:50:37.778Z,1.50
2022-08-16T17:53:07.160Z,3.92
2022-08-16T17:55:37.332Z,4.60
2022-08-16T17:58:09.932Z,2.95
2022-08-16T18:00:55.323Z,2.65
2022-08-16T18:04:07.079Z,1.83
2022-08-16T18:06:18.559Z,3.95
2022-08-16T18:08:48.366Z,2.90
2022-08-16T18:11:26.231Z,1.58
2022-08-16T18:13:55.776Z,2.30
2022-08-16T18:16:25.738Z,3.30
2022-08-16T18:18:54.147Z,2.67
2022-08-16T18:21:40.099Z,1.50
2022-08-16T18:24:08.825Z,2.00
2022-08-16T18:26:37.696Z,3.33
2022-08-16T18:29:06.511Z,3.25
2022-08-16T18:31:36.006Z,3.38
2022-08-16T18:34:04.916Z,1.85
2022-08-16T18:36:33.429Z,3.75
2022-08-16T18:39:01.752Z,1.92
2022-08-16T18:41:30.427Z,3.70
2022-08-16T18:44:25.388Z,1.70
2022-08-16T18:46:51.128Z,1.52
2022-08-16T18:49:19.840Z,3.30
2022-08-16T18:51:49.108Z,2.42
2022-08-16T18:54:19.092Z,2.78
2022-08-16T18:56:55.445Z,2.95
2022-08-16T18:59:25.788Z,3.70
2022-08-16T19:02:00.365Z,3.40
2022-08-16T19:04:50.569Z,3.38
2022-08-16T19:07:21.791Z,2.88
2022-08-16T19:09:49.961Z,2.78
2022-08-16T19:12:38.071Z,2.28
2022-08-16T19:15:09.683Z,2.38
2022-08-16T19:17:42.228Z,2.35
2022-08-16T19:20:11.513Z,2.20
2022-08-16T19:23:02.265Z,4.80
2022-08-16T19:25:46.135Z,2.42
2022-08-16T19:28:49.051Z,7.97
2022-08-16T19:31:10.726Z,5.28
2022-08-16T19:33:41.113Z,3.35
2022-08-16T19:36:17.127Z,2.15
2022-08-16T19:39:04.352Z,2.63
2022-08-16T19:41:33.386Z,2.15
2022-08-16T19:44:01.520Z,2.17
2022-08-16T19:46:29.684Z,3.78
2022-08-16T19:48:59.185Z,3.38
2022-08-16T19:51:27.577Z,2.10
2022-08-16T19:53:55.720Z,4.72
2022-08-16T19:56:25.816Z,2.67
2022-08-16T20:01:43.205Z,2.30
2022-08-16T20:04:13.535Z,3.25
2022-08-16T20:06:41.837Z,2.95
2022-08-16T20:09:12.706Z,2.38
2022-08-16T20:11:43.290Z,2.70
2022-08-16T20:14:11.746Z,2.50
2022-08-16T20:16:47.617Z,2.63
2022-08-16T20:19:17.216Z,2.72
2022-08-16T20:21:46.235Z,2.20
2022-08-16T20:24:32.951Z,2.53
2022-08-16T20:27:02.237Z,5.35
2022-08-16T20:29:31.048Z,2.47
2022-08-16T20:31:59.316Z,3.28
2022-08-16T20:34:28.857Z,3.95
2022-08-16T20:36:57.006Z,2.58
2022-08-16T20:39:25.230Z,3.17
2022-08-16T20:41:53.392Z,2.72
2022-08-16T20:44:22.620Z,3.67
2022-08-16T20:46:51.806Z,3.47
2022-08-16T20:49:21.132Z,2.20
2022-08-16T20:51:55.836Z,3.53
2022-08-16T20:54:27.133Z,3.97
2022-08-16T20:56:55.341Z,2.17
2022-08-16T20:59:23.497Z,2.88
2022-08-16T21:01:51.741Z,3.20
2022-08-16T21:04:21.227Z,4.53
2022-08-16T21:06:53.697Z,3.90
2022-08-16T21:09:24.226Z,3.42
2022-08-16T21:11:54.898Z,4.45
2022-08-16T21:14:23.580Z,2.50
2022-08-16T21:16:52.326Z,2.45
2022-08-16T21:19:22.287Z,2.35
2022-08-16T21:21:51.736Z,3.30
2022-08-16T21:24:19.876Z,6.82
2022-08-16T21:26:55.432Z,2.58
2022-08-16T21:29:39.622Z,4.97
2022-08-16T21:32:13.522Z,2.58
2022-08-16T21:34:42.658Z,4.55
2022-08-16T21:37:15.637Z,4.68
2022-08-16T21:42:15.981Z,4.22
2022-08-16T21:44:46.624Z,4.65
2022-08-16T21:47:14.707Z,2.05
2022-08-16T21:49:43.108Z,4.25
2022-08-16T21:52:22.634Z,2.40
2022-08-16T21:54:57.866Z,3.13
2022-08-16T21:57:26.139Z,3.45
2022-08-16T21:59:56.258Z,4.07
2022-08-16T22:02:27.903Z,2.63
2022-08-16T22:05:05.338Z,4.20
2022-08-16T22:07:34.844Z,4.28
2022-08-16T22:11:01.184Z,2.92
2022-08-16T22:12:51.829Z,2.47
2022-08-16T22:15:25.636Z,6.78
2022-08-16T22:17:55.266Z,3.75
2022-08-16T22:20:24.423Z,3.72
2022-08-16T22:23:04.454Z,3.92
2022-08-16T22:25:32.795Z,2.85
2022-08-16T22:28:00.969Z,2.83
2022-08-16T22:30:29.075Z,3.80
2022-08-16T22:32:57.240Z,2.88
2022-08-16T22:35:25.604Z,2.72
2022-08-16T22:38:01.163Z,2.78
2022-08-16T22:40:44.521Z,3.35
2022-08-16T22:43:13.303Z,3.35
2022-08-16T22:45:41.976Z,5.03
2022-08-16T22:48:10.155Z,4.10
2022-08-16T22:50:44.533Z,2.53
2022-08-16T22:53:14.944Z,4.15
2022-08-16T22:55:43.092Z,2.80
2022-08-16T22:58:11.425Z,3.88
2022-08-16T23:00:39.689Z,2.70
2022-08-16T23:03:10.075Z,2.60
2022-08-16T23:05:40.503Z,2.92
2022-08-16T23:08:10.875Z,2.65
2022-08-16T23:10:40.653Z,2.47
2022-08-16T23:13:09.742Z,2.50
2022-08-16T23:15:42.543Z,3.90
2022-08-16T23:18:12.588Z,3.58
2022-08-16T23:20:42.399Z,2.50
2022-08-16T23:23:28.671Z,3.35
2022-08-16T23:25:59.476Z,4.88
2022-08-16T23:28:29.498Z,3.50
2022-08-16T23:30:59.208Z,3.42
2022-08-16T23:33:30.170Z,3.13
2022-08-16T23:36:00.599Z,3.08
2022-08-16T23:38:37.440Z,3.58
2022-08-16T23:41:12.129Z,3.08
2022-08-16T23:43:43.037Z,3.08
2022-08-16T23:46:15.120Z,3.00
2022-08-16T23:49:56.185Z,5.15
2022-08-16T23:51:32.377Z,2.88
2022-08-16T23:54:01.185Z,2.80
2022-08-16T23:56:32.113Z,4.45
2022-08-16T23:59:08.506Z,2.80
